Time;durP1;ratioP1;P1;durP2;ratioP2;P2;SDS_P1;SDS_P2;PMS_P1;PMS_P2;Temp;Humidity;BMP_temperature;BMP_pressure;BME280_temperature;BME280_humidity;BME280_pressure;Samples;Min_cycle;Max_cycle;Signal;HPM_P1;HPM_P2
2023/02/13 00:00:10;;;;;;;19.50;11.00;;;7.20;99.90;;;;;;5071207;28;20198;-51
2023/02/13 00:02:37;;;;;;;18.57;10.63;;;7.20;99.90;;;;;;5088247;28;20201;-55
2023/02/13 00:05:03;;;;;;;17.20;10.73;;;7.20;99.90;;;;;;5079143;28;20205;-55
2023/02/13 00:07:30;;;;;;;17.57;11.37;;;7.20;99.90;;;;;;5081774;28;20231;-52
2023/02/13 00:09:57;;;;;;;21.10;11.63;;;7.20;99.90;;;;;;5093699;28;20209;-53
2023/02/13 00:12:25;;;;;;;17.77;11.50;;;7.20;99.90;;;;;;5084337;28;20242;-51
2023/02/13 00:14:52;;;;;;;17.37;10.80;;;7.20;99.90;;;;;;5077347;28;20267;-53
2023/02/13 00:17:19;;;;;;;18.83;10.87;;;7.20;99.90;;;;;;5083837;28;20325;-52
2023/02/13 00:19:46;;;;;;;16.50;10.87;;;7.20;99.90;;;;;;5085220;28;20265;-52
2023/02/13 00:22:15;;;;;;;20.47;11.33;;;7.20;99.90;;;;;;5080079;27;20209;-55
2023/02/13 00:24:42;;;;;;;16.80;10.10;;;7.30;99.90;;;;;;5100294;27;20293;-54
2023/02/13 00:27:09;;;;;;;16.20;11.07;;;7.20;99.90;;;;;;5081544;28;20232;-55
2023/02/13 00:29:37;;;;;;;19.10;11.57;;;7.20;99.90;;;;;;5077919;28;20797;-55
2023/02/13 00:32:05;;;;;;;17.53;11.93;;;7.20;99.90;;;;;;5080106;28;20308;-54
2023/02/13 00:34:33;;;;;;;16.77;11.17;;;7.20;99.90;;;;;;5094352;28;20732;-55
2023/02/13 00:37:03;;;;;;;19.53;11.47;;;7.20;99.90;;;;;;5089956;28;20221;-56
2023/02/13 00:39:30;;;;;;;18.10;11.53;;;7.10;99.90;;;;;;5098045;27;20190;-53
2023/02/13 00:41:57;;;;;;;21.03;12.33;;;7.20;99.90;;;;;;5077538;28;20206;-53
2023/02/13 00:44:23;;;;;;;18.73;11.27;;;7.20;99.90;;;;;;5086066;28;20202;-56
2023/02/13 00:46:51;;;;;;;19.80;12.57;;;7.20;99.90;;;;;;5078556;28;20233;-53
2023/02/13 00:49:19;;;;;;;22.03;12.57;;;7.20;99.90;;;;;;5093911;28;20253;-53
2023/02/13 00:51:45;;;;;;;21.03;11.80;;;7.10;99.90;;;;;;5083652;28;20649;-51
2023/02/13 00:54:13;;;;;;;18.13;12.17;;;7.10;99.90;;;;;;5098275;27;20224;-52
2023/02/13 00:57:02;;;;;;;20.07;12.03;;;7.20;99.90;;;;;;5082441;27;20812;-54
2023/02/13 00:59:29;;;;;;;18.03;11.43;;;7.20;99.90;;;;;;5088685;28;20634;-54
2023/02/13 01:01:57;;;;;;;20.33;13.10;;;7.10;99.90;;;;;;5090212;28;20193;-51
2023/02/13 01:04:24;;;;;;;18.17;12.17;;;7.10;99.90;;;;;;5084625;28;20247;-54
2023/02/13 01:06:51;;;;;;;17.80;12.33;;;7.20;99.90;;;;;;5083266;28;20225;-52
2023/02/13 01:09:18;;;;;;;21.20;12.33;;;7.10;99.90;;;;;;5089477;27;20230;-54
2023/02/13 01:11:45;;;;;;;21.40;13.40;;;7.10;99.90;;;;;;5087745;27;20220;-54
2023/02/13 01:14:12;;;;;;;21.40;12.87;;;7.10;99.90;;;;;;5083942;28;20212;-54
2023/02/13 01:16:39;;;;;;;22.07;13.27;;;7.10;99.90;;;;;;5084263;28;20668;-54
2023/02/13 01:19:07;;;;;;;22.93;13.20;;;7.10;99.90;;;;;;5072079;28;20927;-52
2023/02/13 01:21:35;;;;;;;22.53;12.47;;;7.10;99.90;;;;;;5084592;28;20570;-56
2023/02/13 01:24:04;;;;;;;22.70;13.20;;;7.10;99.90;;;;;;5075607;27;20202;-55
2023/02/13 01:26:31;;;;;;;22.27;13.27;;;7.10;99.90;;;;;;5096374;27;20714;-53
2023/02/13 01:28:58;;;;;;;23.83;14.27;;;7.10;99.90;;;;;;5078494;28;20225;-53
2023/02/13 01:31:25;;;;;;;24.53;14.13;;;7.10;99.90;;;;;;5090918;28;20194;-55
2023/02/13 01:33:55;;;;;;;20.80;12.53;;;7.10;99.90;;;;;;5073581;28;20205;-53
2023/02/13 01:36:24;;;;;;;21.43;13.70;;;7.10;99.90;;;;;;5083282;28;20206;-54
2023/02/13 01:38:54;;;;;;;24.53;14.33;;;7.10;99.90;;;;;;5085855;27;20583;-52
2023/02/13 01:41:21;;;;;;;21.57;13.07;;;7.10;99.90;;;;;;5101649;27;20206;-54
2023/02/13 01:43:50;;;;;;;22.67;13.73;;;7.10;99.90;;;;;;5082989;28;20212;-52
2023/02/13 01:46:21;;;;;;;22.87;13.53;;;7.10;99.90;;;;;;5084079;28;20844;-55
2023/02/13 01:48:51;;;;;;;22.93;14.30;;;7.00;99.90;;;;;;5074257;28;20234;-52
2023/02/13 01:51:23;;;;;;;28.53;14.70;;;7.00;99.90;;;;;;5085709;28;20204;-52
2023/02/13 01:53:55;;;;;;;22.30;13.23;;;7.00;99.90;;;;;;5076184;28;20205;-53
2023/02/13 01:56:27;;;;;;;24.47;14.67;;;7.00;99.90;;;;;;5076284;27;20212;-52
2023/02/13 01:58:59;;;;;;;24.77;14.27;;;7.00;99.90;;;;;;5086009;27;20229;-52
2023/02/13 02:01:27;;;;;;;25.67;14.87;;;7.00;99.90;;;;;;5087522;27;20890;-55
2023/02/13 02:03:58;;;;;;;21.77;13.87;;;7.00;99.90;;;;;;5074794;28;20197;-52
2023/02/13 02:06:30;;;;;;;20.57;14.40;;;7.00;99.90;;;;;;5094541;28;20687;-55
2023/02/13 02:09:03;;;;;;;24.07;15.03;;;7.00;99.90;;;;;;5072544;28;20210;-53
2023/02/13 02:11:36;;;;;;;23.30;14.33;;;7.00;99.90;;;;;;5103678;27;20189;-56
2023/02/13 02:14:04;;;;;;;24.03;14.50;;;7.00;99.90;;;;;;5075469;28;20193;-55
2023/02/13 02:16:33;;;;;;;24.63;14.33;;;7.00;99.90;;;;;;5097437;27;20560;-53
2023/02/13 02:19:09;;;;;;;24.27;14.87;;;7.00;99.90;;;;;;5071735;28;20262;-53
2023/02/13 02:22:19;;;;;;;24.30;14.50;;;7.00;99.90;;;;;;5084426;28;20248;-53
2023/02/13 02:25:33;;;;;;;23.83;14.10;;;7.00;99.90;;;;;;5076498;28;20553;-52
2023/02/13 02:28:25;;;;;;;24.03;14.63;;;7.00;99.90;;;;;;5083171;27;20270;-54
2023/02/13 02:31:40;;;;;;;23.00;14.90;;;7.00;99.90;;;;;;5078907;28;20205;-52
2023/02/13 02:34:17;;;;;;;25.53;14.13;;;7.00;99.90;;;;;;5079210;28;20194;-52
2023/02/13 02:36:58;;;;;;;22.67;14.13;;;6.90;99.90;;;;;;5075319;28;20308;-52
2023/02/13 02:39:34;;;;;;;22.83;13.80;;;7.00;99.90;;;;;;5084236;28;20197;-53
2023/02/13 02:42:10;;;;;;;21.47;13.67;;;6.90;99.90;;;;;;5086944;27;20207;-53
2023/02/13 02:44:44;;;;;;;22.90;13.97;;;6.90;99.90;;;;;;5082357;28;20215;-51
2023/02/13 02:50:32;;;;;;;23.73;14.17;;;6.90;99.90;;;;;;5077021;28;20938;-51
2023/02/13 02:53:07;;;;;;;22.37;13.63;;;6.90;99.90;;;;;;5073524;28;20206;-51
2023/02/13 02:55:43;;;;;;;22.50;13.90;;;6.90;99.90;;;;;;5085779;27;20211;-51
2023/02/13 03:07:07;;;;;;;21.97;13.37;;;6.80;99.90;;;;;;5069248;28;21209;-52
2023/02/13 03:15:13;;;;;;;20.53;11.80;;;6.70;99.90;;;;;;5052153;28;20206;-55
2023/02/13 03:23:23;;;;;;;16.03;11.00;;;6.80;99.90;;;;;;5035319;28;20214;-53
2023/02/13 03:26:19;;;;;;;18.90;12.03;;;6.80;99.90;;;;;;5081179;28;20607;-53
2023/02/13 03:31:52;;;;;;;17.80;12.17;;;6.80;99.90;;;;;;5088632;28;20190;-51
2023/02/13 03:34:23;;;;;;;19.27;12.47;;;6.80;99.90;;;;;;5081338;28;20205;-51
2023/02/13 03:39:53;;;;;;;18.57;11.63;;;6.80;99.90;;;;;;5073689;28;20556;-49
2023/02/13 03:42:26;;;;;;;19.80;11.97;;;6.80;99.90;;;;;;5080214;28;20220;-52
2023/02/13 03:47:41;;;;;;;19.90;11.90;;;6.80;99.90;;;;;;5086276;28;20222;-51
2023/02/13 03:50:09;;;;;;;16.60;11.53;;;6.80;99.90;;;;;;5087850;28;20235;-53
2023/02/13 03:52:45;;;;;;;17.20;11.23;;;6.80;99.90;;;;;;5087164;28;20277;-54
2023/02/13 04:00:51;;;;;;;12.37;8.97;;;6.70;99.90;;;;;;5104213;27;20259;-54
2023/02/13 04:03:24;;;;;;;15.37;9.93;;;6.70;99.90;;;;;;5084184;28;21857;-52
2023/02/13 04:05:56;;;;;;;14.30;9.57;;;6.70;99.90;;;;;;5084164;28;20205;-50
2023/02/13 04:08:24;;;;;;;13.70;9.67;;;6.70;99.90;;;;;;5086738;28;20237;-51
2023/02/13 04:10:57;;;;;;;15.77;9.73;;;6.70;99.90;;;;;;5075825;28;20225;-50
2023/02/13 04:13:29;;;;;;;12.97;9.30;;;6.70;99.90;;;;;;5083513;27;20223;-55
2023/02/13 04:15:59;;;;;;;12.97;9.40;;;6.70;99.90;;;;;;5085333;27;20652;-51
2023/02/13 04:18:29;;;;;;;14.33;10.63;;;6.70;99.90;;;;;;5086970;28;20218;-50
2023/02/13 04:20:56;;;;;;;15.17;11.10;;;6.70;99.90;;;;;;5088021;28;20216;-50
2023/02/13 04:23:24;;;;;;;16.50;10.67;;;6.70;99.90;;;;;;5105840;28;20216;-54
2023/02/13 04:25:54;;;;;;;12.40;9.93;;;6.70;99.90;;;;;;5083296;28;20201;-54
2023/02/13 04:28:21;;;;;;;14.43;10.07;;;6.70;99.90;;;;;;5077476;28;20593;-48
2023/02/13 04:30:48;;;;;;;15.10;11.00;;;6.70;99.90;;;;;;5100561;27;20864;-50
2023/02/13 04:33:37;;;;;;;17.37;10.03;;;6.70;99.90;;;;;;5087997;27;20216;-50
2023/02/13 04:36:05;;;;;;;16.47;11.40;;;6.70;99.90;;;;;;5093230;27;20209;-53
2023/02/13 04:38:33;;;;;;;15.73;10.63;;;6.70;99.90;;;;;;5086670;28;20205;-53
2023/02/13 04:41:00;;;;;;;13.90;10.67;;;6.70;99.90;;;;;;5078378;28;20198;-49
2023/02/13 04:43:27;;;;;;;18.23;11.30;;;6.70;99.90;;;;;;5082582;28;20926;-51
2023/02/13 04:45:54;;;;;;;14.93;10.67;;;6.70;99.90;;;;;;5086257;27;20221;-50
2023/02/13 04:48:20;;;;;;;14.97;9.87;;;6.70;99.90;;;;;;5104216;27;20279;-52
2023/02/13 04:50:47;;;;;;;14.03;10.53;;;6.70;99.90;;;;;;5084521;28;20233;-51
2023/02/13 04:53:14;;;;;;;14.23;10.33;;;6.70;99.90;;;;;;5082238;28;20198;-53
2023/02/13 04:55:42;;;;;;;16.30;10.00;;;6.70;99.90;;;;;;5076554;28;20202;-50
2023/02/13 04:58:09;;;;;;;13.33;10.07;;;6.60;99.90;;;;;;5082894;28;20271;-50
2023/02/13 05:00:36;;;;;;;15.13;10.77;;;6.70;99.90;;;;;;5078548;27;20361;-50
2023/02/13 05:03:05;;;;;;;12.37;9.67;;;6.60;99.90;;;;;;5088498;27;20267;-48
2023/02/13 05:05:32;;;;;;;16.00;10.90;;;6.60;99.90;;;;;;5084106;28;20962;-51
2023/02/13 05:07:58;;;;;;;14.27;9.37;;;6.60;99.90;;;;;;5086303;27;20233;-54
2023/02/13 05:10:25;;;;;;;15.00;10.17;;;6.60;99.90;;;;;;5074537;28;20936;-53
2023/02/13 05:12:53;;;;;;;14.37;10.43;;;6.60;99.90;;;;;;5087711;28;20194;-51
2023/02/13 05:15:41;;;;;;;15.93;11.63;;;6.60;99.90;;;;;;5099449;28;20712;-54
2023/02/13 05:18:09;;;;;;;11.83;9.50;;;6.60;99.90;;;;;;5080969;27;20232;-52
2023/02/13 05:20:35;;;;;;;15.87;10.87;;;6.60;99.90;;;;;;5100577;27;20190;-52
2023/02/13 05:25:47;;;;;;;17.13;10.77;;;6.60;99.90;;;;;;5078595;28;20197;-52
2023/02/13 05:31:00;;;;;;;16.50;11.63;;;6.60;99.90;;;;;;5088836;28;20243;-52
2023/02/13 05:33:27;;;;;;;16.80;11.67;;;6.60;99.90;;;;;;5078771;27;20190;-50
2023/02/13 05:35:54;;;;;;;23.30;11.10;;;6.60;99.90;;;;;;5087739;27;20213;-53
2023/02/13 05:38:20;;;;;;;17.00;10.53;;;6.60;99.90;;;;;;5086989;27;20964;-55
2023/02/13 05:40:47;;;;;;;18.03;10.73;;;6.50;99.90;;;;;;5085292;28;20194;-54
2023/02/13 05:43:15;;;;;;;15.00;10.40;;;6.50;99.90;;;;;;5077917;28;20286;-54
2023/02/13 05:45:42;;;;;;;15.17;10.87;;;6.50;99.90;;;;;;5078266;28;20312;-51
2023/02/13 05:48:09;;;;;;;13.93;10.53;;;6.50;99.90;;;;;;5092251;27;20213;-53
2023/02/13 05:50:36;;;;;;;16.90;10.47;;;6.50;99.90;;;;;;5088230;27;20224;-53
2023/02/13 05:53:02;;;;;;;14.30;10.40;;;6.50;99.90;;;;;;5096382;27;20283;-55
2023/02/13 05:55:29;;;;;;;14.33;10.83;;;6.50;99.90;;;;;;5093714;28;20197;-54
2023/02/13 05:57:56;;;;;;;14.80;10.57;;;6.50;99.90;;;;;;5080906;28;20940;-53
2023/02/13 06:00:25;;;;;;;15.33;10.77;;;6.40;99.90;;;;;;5093219;28;20270;-54
2023/02/13 06:02:52;;;;;;;15.73;10.03;;;6.50;99.90;;;;;;5092490;28;20213;-53
2023/02/13 06:05:19;;;;;;;14.90;9.93;;;6.50;99.90;;;;;;5100146;27;20201;-54
2023/02/13 06:07:46;;;;;;;13.13;10.33;;;6.50;99.90;;;;;;5091643;27;20225;-55
2023/02/13 06:10:12;;;;;;;13.80;10.17;;;6.50;99.90;;;;;;5090071;28;20209;-52
2023/02/13 06:12:39;;;;;;;15.27;10.77;;;6.50;99.90;;;;;;5080216;28;20198;-52
2023/02/13 06:15:07;;;;;;;14.47;9.63;;;6.50;99.90;;;;;;5093020;28;20194;-54
2023/02/13 06:17:35;;;;;;;17.10;10.00;;;6.50;99.90;;;;;;5097028;28;20237;-51
2023/02/13 06:20:02;;;;;;;13.10;9.53;;;6.50;99.90;;;;;;5090339;27;20205;-52
2023/02/13 06:22:28;;;;;;;15.80;9.87;;;6.50;99.90;;;;;;5092002;27;20667;-53
2023/02/13 06:24:55;;;;;;;13.60;9.30;;;6.50;99.90;;;;;;5084835;27;20205;-55
2023/02/13 06:27:23;;;;;;;14.47;9.83;;;6.50;99.90;;;;;;5091399;28;20209;-55
2023/02/13 06:29:49;;;;;;;14.87;10.37;;;6.50;99.90;;;;;;5080464;28;20959;-52
2023/02/13 06:32:17;;;;;;;16.07;10.37;;;6.50;99.90;;;;;;5094454;28;20190;-52
2023/02/13 06:34:45;;;;;;;14.47;9.90;;;6.50;99.90;;;;;;5091715;28;20943;-53
2023/02/13 06:37:12;;;;;;;15.70;9.77;;;6.50;99.90;;;;;;5083449;27;20221;-51
2023/02/13 06:39:39;;;;;;;17.53;10.87;;;6.50;99.90;;;;;;5088708;27;20198;-55
2023/02/13 06:42:06;;;;;;;16.03;10.03;;;6.50;99.90;;;;;;5095176;28;20220;-54
2023/02/13 06:44:33;;;;;;;15.03;9.43;;;6.50;99.90;;;;;;5085814;28;20251;-53
2023/02/13 06:47:00;;;;;;;13.67;9.80;;;6.50;99.90;;;;;;5091639;28;20214;-52
2023/02/13 06:49:27;;;;;;;17.57;9.93;;;6.50;99.90;;;;;;5088860;28;20245;-54
2023/02/13 06:51:55;;;;;;;15.30;10.17;;;6.50;99.90;;;;;;5084708;27;20342;-53
2023/02/13 06:54:22;;;;;;;14.70;11.07;;;6.50;99.90;;;;;;5098361;27;20206;-51
2023/02/13 06:56:49;;;;;;;13.97;9.67;;;6.50;99.90;;;;;;5087866;28;20221;-53
2023/02/13 06:59:15;;;;;;;15.73;10.10;;;6.50;99.90;;;;;;5084675;28;20277;-50
2023/02/13 07:01:42;;;;;;;15.60;10.87;;;6.50;99.90;;;;;;5089516;28;20197;-53
2023/02/13 07:04:09;;;;;;;16.23;10.87;;;6.50;99.90;;;;;;5086968;28;20675;-51
2023/02/13 07:06:36;;;;;;;15.87;9.90;;;6.50;99.90;;;;;;5084880;28;20216;-51
2023/02/13 07:09:05;;;;;;;15.13;10.87;;;6.50;99.90;;;;;;5081443;28;20197;-53
2023/02/13 07:11:32;;;;;;;15.43;10.80;;;6.50;99.90;;;;;;5095258;28;20845;-51
2023/02/13 07:13:58;;;;;;;16.07;10.77;;;6.50;99.90;;;;;;5076873;28;20205;-52
2023/02/13 07:16:25;;;;;;;14.90;11.07;;;6.50;99.90;;;;;;5091787;28;20193;-51
2023/02/13 07:18:52;;;;;;;16.80;11.30;;;6.50;99.90;;;;;;5087330;28;20193;-51
2023/02/13 07:21:19;;;;;;;15.20;11.00;;;6.50;99.90;;;;;;5093501;28;20195;-52
2023/02/13 07:23:46;;;;;;;16.23;10.63;;;6.50;99.90;;;;;;5079153;28;20209;-54
2023/02/13 07:26:15;;;;;;;17.93;12.07;;;6.50;99.90;;;;;;5104943;27;20241;-51
2023/02/13 07:28:41;;;;;;;18.33;12.53;;;6.50;99.90;;;;;;5083587;28;20221;-52
2023/02/13 07:31:10;;;;;;;18.60;12.27;;;6.50;99.90;;;;;;5099895;28;20724;-50
2023/02/13 07:33:37;;;;;;;17.27;12.03;;;6.50;99.90;;;;;;5094798;28;20676;-51
2023/02/13 07:36:04;;;;;;;15.77;11.83;;;6.50;99.90;;;;;;5093565;28;20276;-51
2023/02/13 07:38:32;;;;;;;19.30;11.80;;;6.50;99.90;;;;;;5084024;28;20214;-48
2023/02/13 07:40:58;;;;;;;19.30;12.40;;;6.50;99.90;;;;;;5094148;27;20278;-53
2023/02/13 07:43:27;;;;;;;22.07;12.57;;;6.50;99.90;;;;;;5096427;27;20597;-52
2023/02/13 07:46:17;;;;;;;18.53;12.13;;;6.50;99.90;;;;;;5081694;28;20221;-49
2023/02/13 07:48:44;;;;;;;21.10;13.60;;;6.50;99.90;;;;;;5082686;28;20293;-53
2023/02/13 07:51:11;;;;;;;20.40;12.00;;;6.60;99.90;;;;;;5083496;27;20221;-55
2023/02/13 07:53:37;;;;;;;19.13;12.67;;;6.60;99.90;;;;;;5098562;28;20536;-52
2023/02/13 07:56:07;;;;;;;18.87;12.30;;;6.60;99.90;;;;;;5080747;27;20552;-50
2023/02/13 07:58:38;;;;;;;21.60;12.27;;;6.60;99.90;;;;;;5104245;27;20249;-50
2023/02/13 08:01:07;;;;;;;21.27;12.10;;;6.60;99.90;;;;;;5080720;28;20303;-50
2023/02/13 08:03:34;;;;;;;20.47;12.60;;;6.60;99.90;;;;;;5089907;28;20710;-53
2023/02/13 08:06:01;;;;;;;22.27;12.40;;;6.60;99.90;;;;;;5084160;28;20672;-49
2023/02/13 08:08:29;;;;;;;22.73;14.03;;;6.60;99.90;;;;;;5086358;28;20267;-55
2023/02/13 08:13:50;;;;;;;18.70;12.63;;;6.60;99.90;;;;;;5088216;27;20206;-54
2023/02/13 08:16:17;;;;;;;18.27;12.97;;;6.60;99.90;;;;;;5082018;28;20200;-49
2023/02/13 08:18:44;;;;;;;21.67;13.07;;;6.60;99.90;;;;;;5100880;28;20590;-53
2023/02/13 08:21:11;;;;;;;19.97;12.60;;;6.60;99.90;;;;;;5085825;27;20280;-52
2023/02/13 08:23:37;;;;;;;22.50;13.77;;;6.60;99.90;;;;;;5084359;27;20205;-51
2023/02/13 08:26:30;;;;;;;19.90;12.27;;;6.60;99.90;;;;;;5080285;27;20208;-50
2023/02/13 08:28:58;;;;;;;20.67;13.23;;;6.70;99.90;;;;;;5091111;27;20200;-53
2023/02/13 08:31:25;;;;;;;19.40;12.37;;;6.70;99.90;;;;;;5078221;28;20217;-51
2023/02/13 08:33:52;;;;;;;19.73;12.20;;;6.60;99.90;;;;;;5091012;27;20208;-55
2023/02/13 08:36:19;;;;;;;20.43;12.77;;;6.60;99.90;;;;;;5082232;27;20202;-54
2023/02/13 08:38:46;;;;;;;19.63;13.33;;;6.70;99.90;;;;;;5092073;28;20226;-53
2023/02/13 08:41:13;;;;;;;20.27;12.60;;;6.70;99.90;;;;;;5082952;27;20725;-51
2023/02/13 08:43:41;;;;;;;19.23;11.80;;;6.70;99.90;;;;;;5098259;27;20251;-51
2023/02/13 08:46:09;;;;;;;18.77;12.10;;;6.70;99.90;;;;;;5077710;27;20285;-53
2023/02/13 08:48:38;;;;;;;20.63;13.07;;;6.70;99.90;;;;;;5080330;28;20296;-55
2023/02/13 08:51:06;;;;;;;19.27;12.57;;;6.80;99.90;;;;;;5092288;28;20270;-54
2023/02/13 08:53:33;;;;;;;19.97;13.60;;;6.80;99.90;;;;;;5083484;28;20373;-52
2023/02/13 08:56:00;;;;;;;17.90;12.53;;;6.80;99.90;;;;;;5089396;28;20205;-51
2023/02/13 08:58:27;;;;;;;23.83;13.53;;;6.80;99.90;;;;;;5076940;27;20553;-53
2023/02/13 09:00:53;;;;;;;18.20;12.77;;;6.80;99.90;;;;;;5105799;27;20201;-54
2023/02/13 09:03:23;;;;;;;20.50;12.83;;;6.80;99.90;;;;;;5071222;28;20981;-51
2023/02/13 09:05:49;;;;;;;18.77;12.70;;;6.80;99.90;;;;;;5096362;28;20372;-53
2023/02/13 09:08:16;;;;;;;19.27;12.43;;;6.80;99.90;;;;;;5084993;28;20226;-51
2023/02/13 09:10:43;;;;;;;20.33;13.33;;;6.90;99.90;;;;;;5087635;28;20695;-53
2023/02/13 09:13:11;;;;;;;17.93;12.87;;;6.90;99.90;;;;;;5073410;27;20213;-56
2023/02/13 09:15:39;;;;;;;21.03;12.97;;;6.90;99.90;;;;;;5086422;27;20205;-48
2023/02/13 09:18:06;;;;;;;21.87;13.30;;;6.90;99.90;;;;;;5079598;27;20234;-54
2023/02/13 09:20:34;;;;;;;19.90;13.23;;;6.90;99.90;;;;;;5084060;28;21027;-47
2023/02/13 09:23:00;;;;;;;20.37;12.87;;;6.90;99.90;;;;;;5086366;28;20205;-55
2023/02/13 09:25:27;;;;;;;22.97;13.53;;;6.90;99.90;;;;;;5093028;28;20194;-49
2023/02/13 09:27:54;;;;;;;18.90;12.67;;;6.90;99.90;;;;;;5085818;27;20225;-49
2023/02/13 09:30:24;;;;;;;18.03;12.70;;;7.00;99.90;;;;;;5080084;27;20281;-51
2023/02/13 09:32:51;;;;;;;20.90;12.70;;;7.00;99.90;;;;;;5091253;27;20209;-50
2023/02/13 09:35:18;;;;;;;17.30;12.47;;;6.90;99.90;;;;;;5078953;28;20202;-58
2023/02/13 09:37:47;;;;;;;19.73;12.30;;;6.90;99.90;;;;;;5088940;28;20225;-47
2023/02/13 09:40:20;;;;;;;20.07;13.50;;;6.90;99.90;;;;;;5082100;28;20205;-56
2023/02/13 09:42:49;;;;;;;19.30;12.80;;;7.00;99.90;;;;;;5088443;28;20189;-51
2023/02/13 09:45:20;;;;;;;18.80;13.40;;;7.00;99.90;;;;;;5078216;27;20216;-55
2023/02/13 09:47:48;;;;;;;19.83;12.87;;;7.00;99.90;;;;;;5099433;27;20232;-47
2023/02/13 09:50:21;;;;;;;19.20;12.73;;;7.00;99.90;;;;;;5079185;28;20284;-57
2023/02/13 09:52:51;;;;;;;18.00;11.57;;;7.00;99.90;;;;;;5084790;28;20289;-48
2023/02/13 09:55:20;;;;;;;17.93;11.50;;;6.90;99.90;;;;;;5087596;28;20198;-55
2023/02/13 09:57:54;;;;;;;16.43;11.53;;;7.00;99.90;;;;;;5095794;28;20241;-51
2023/02/13 10:00:24;;;;;;;19.50;12.63;;;7.00;99.90;;;;;;5073775;27;20444;-50
2023/02/13 10:03:21;;;;;;;16.07;10.93;;;7.10;99.90;;;;;;5085597;27;20281;-57
2023/02/13 10:06:13;;;;;;;15.57;11.43;;;7.10;99.90;;;;;;5081872;28;20258;-54
2023/02/13 10:09:05;;;;;;;20.57;12.60;;;7.10;99.90;;;;;;5083666;28;20275;-50
2023/02/13 10:11:53;;;;;;;17.07;12.10;;;7.10;99.90;;;;;;5083629;28;20722;-48
2023/02/13 10:14:47;;;;;;;15.87;11.20;;;7.20;99.90;;;;;;5089487;27;20212;-49
2023/02/13 10:17:20;;;;;;;17.37;12.10;;;7.20;99.90;;;;;;5097712;27;20229;-55
2023/02/13 10:19:50;;;;;;;17.10;11.63;;;7.20;99.90;;;;;;5081182;27;20209;-47
2023/02/13 10:22:21;;;;;;;20.10;11.67;;;7.20;99.90;;;;;;5084829;28;20200;-54
2023/02/13 10:24:54;;;;;;;17.47;12.03;;;7.20;99.90;;;;;;5097293;28;20193;-48
2023/02/13 10:27:23;;;;;;;18.37;11.43;;;7.20;99.90;;;;;;5090065;28;20218;-47
2023/02/13 10:30:05;;;;;;;17.60;11.93;;;7.20;99.90;;;;;;5098193;28;20208;-47
2023/02/13 10:32:45;;;;;;;18.20;12.30;;;7.20;99.90;;;;;;5084456;27;20988;-51
2023/02/13 10:35:22;;;;;;;16.50;11.63;;;7.20;99.90;;;;;;5080810;27;20207;-53
2023/02/13 10:37:52;;;;;;;16.90;11.40;;;7.30;99.90;;;;;;5071103;28;20274;-47
2023/02/13 10:40:20;;;;;;;20.10;11.23;;;7.20;99.90;;;;;;5089857;28;20315;-51
2023/02/13 10:42:58;;;;;;;18.43;11.47;;;7.30;99.90;;;;;;5095251;28;20284;-50
2023/02/13 10:45:51;;;;;;;15.90;11.03;;;7.30;99.90;;;;;;5090144;28;20203;-49
2023/02/13 10:48:35;;;;;;;17.30;11.73;;;7.30;99.90;;;;;;5082640;27;20293;-57
2023/02/13 10:51:08;;;;;;;14.93;10.27;;;7.30;99.90;;;;;;5087148;27;20698;-56
2023/02/13 10:53:46;;;;;;;17.33;11.20;;;7.30;99.90;;;;;;5087144;28;20286;-47
2023/02/13 10:56:26;;;;;;;18.60;11.20;;;7.30;99.90;;;;;;5076923;28;20193;-55
2023/02/13 10:59:09;;;;;;;19.37;12.10;;;7.30;99.90;;;;;;5097261;28;20207;-47
2023/02/13 11:02:03;;;;;;;19.70;12.30;;;7.30;99.90;;;;;;5094895;28;20208;-49
2023/02/13 11:04:30;;;;;;;17.40;11.73;;;7.40;99.90;;;;;;5080689;28;20211;-54
2023/02/13 11:07:00;;;;;;;21.27;11.47;;;7.40;99.90;;;;;;5079918;28;20221;-53
2023/02/13 11:09:30;;;;;;;20.23;11.77;;;7.40;99.90;;;;;;5092267;28;20265;-54
2023/02/13 11:11:58;;;;;;;17.07;11.70;;;7.40;99.90;;;;;;5089114;28;20222;-53
2023/02/13 11:14:26;;;;;;;20.67;11.93;;;7.40;99.90;;;;;;5089836;28;20193;-55
2023/02/13 11:16:56;;;;;;;18.67;12.33;;;7.50;99.90;;;;;;5098780;28;20217;-51
2023/02/13 11:19:32;;;;;;;17.00;11.03;;;7.50;99.90;;;;;;5079769;28;20205;-50
2023/02/13 11:22:03;;;;;;;18.00;11.33;;;7.50;99.90;;;;;;5079959;28;20193;-58
2023/02/13 11:24:31;;;;;;;14.53;10.73;;;7.50;99.90;;;;;;5090226;28;20193;-54
2023/02/13 11:27:03;;;;;;;18.13;11.77;;;7.40;99.90;;;;;;5099022;28;20555;-50
2023/02/13 11:29:31;;;;;;;17.13;11.37;;;7.50;99.90;;;;;;5091348;28;20276;-56
2023/02/13 11:32:19;;;;;;;18.60;12.03;;;7.50;99.90;;;;;;5099641;28;20228;-49
2023/02/13 11:34:49;;;;;;;17.00;11.53;;;7.50;99.90;;;;;;5089547;28;20193;-53
2023/02/13 11:37:20;;;;;;;16.27;10.83;;;7.50;99.90;;;;;;5080612;28;20580;-48
2023/02/13 11:39:48;;;;;;;15.70;11.60;;;7.60;99.90;;;;;;5091441;28;20220;-53
2023/02/13 11:42:20;;;;;;;17.13;11.57;;;7.60;99.90;;;;;;5085233;28;20195;-50
2023/02/13 11:44:52;;;;;;;18.03;12.50;;;7.60;99.90;;;;;;5075342;28;20205;-54
2023/02/13 11:47:32;;;;;;;18.80;11.90;;;7.70;99.90;;;;;;5086990;28;20217;-53
2023/02/13 11:49:59;;;;;;;19.20;12.33;;;7.70;99.90;;;;;;5086793;28;20288;-49
2023/02/13 11:52:29;;;;;;;20.90;12.60;;;7.70;99.90;;;;;;5093326;28;21002;-56
2023/02/13 11:54:59;;;;;;;18.10;12.43;;;7.70;99.90;;;;;;5073752;28;20206;-53
2023/02/13 11:57:31;;;;;;;20.27;12.93;;;7.70;99.90;;;;;;5085542;28;20969;-54
2023/02/13 12:00:00;;;;;;;16.83;11.77;;;7.70;99.90;;;;;;5090830;28;20695;-53
2023/02/13 12:02:28;;;;;;;22.73;12.23;;;7.70;99.90;;;;;;5095939;28;20193;-52
2023/02/13 12:05:14;;;;;;;22.97;14.17;;;7.70;99.90;;;;;;5093269;27;20207;-53
2023/02/13 12:07:43;;;;;;;21.47;12.90;;;7.80;99.90;;;;;;5095028;27;20286;-55
2023/02/13 12:10:19;;;;;;;19.90;13.07;;;7.70;99.90;;;;;;5076543;28;20236;-52
2023/02/13 12:13:19;;;;;;;19.67;13.13;;;7.70;99.90;;;;;;5093283;28;20803;-55
2023/02/13 12:15:49;;;;;;;17.50;12.73;;;7.80;99.90;;;;;;5099796;28;20288;-53
2023/02/13 12:18:24;;;;;;;20.97;13.37;;;7.80;99.90;;;;;;5093826;28;20300;-49
2023/02/13 12:21:02;;;;;;;21.53;12.73;;;7.90;99.90;;;;;;5083894;27;20212;-54
2023/02/13 12:23:38;;;;;;;19.17;11.97;;;7.80;99.90;;;;;;5098357;27;20280;-56
2023/02/13 12:26:13;;;;;;;21.73;13.13;;;7.80;99.90;;;;;;5075561;28;20209;-50
2023/02/13 12:29:01;;;;;;;19.37;13.40;;;7.80;99.90;;;;;;5091199;28;20243;-55
2023/02/13 12:31:43;;;;;;;23.07;14.63;;;7.80;99.90;;;;;;5094090;28;20222;-55
2023/02/13 12:34:59;;;;;;;21.90;14.60;;;7.80;99.90;;;;;;5084353;27;20205;-49
2023/02/13 12:37:46;;;;;;;17.53;12.93;;;7.80;99.90;;;;;;5024765;28;20295;-53
2023/02/13 12:40:29;;;;;;;21.57;13.90;;;7.80;99.90;;;;;;5066236;27;20221;-47
2023/02/13 12:43:27;;;;;;;20.47;14.67;;;7.80;99.90;;;;;;5085163;28;20190;-50
2023/02/13 12:46:03;;;;;;;23.70;14.30;;;7.80;99.90;;;;;;5085918;28;20656;-50
2023/02/13 12:48:59;;;;;;;23.80;14.17;;;7.80;99.90;;;;;;5085515;28;20237;-53
2023/02/13 12:51:35;;;;;;;23.57;13.90;;;7.80;99.90;;;;;;5075094;28;20323;-54
2023/02/13 12:54:27;;;;;;;23.43;14.87;;;7.80;99.90;;;;;;5103197;27;20245;-49
2023/02/13 12:57:05;;;;;;;22.67;14.90;;;7.80;99.90;;;;;;5078569;28;20237;-49
2023/02/13 12:59:42;;;;;;;22.63;14.37;;;7.80;99.90;;;;;;5084278;28;20263;-52
2023/02/13 13:02:40;;;;;;;25.70;15.53;;;7.80;99.90;;;;;;5084614;28;20637;-48
2023/02/13 13:05:26;;;;;;;23.97;14.43;;;7.80;99.90;;;;;;5086028;28;20201;-46
2023/02/13 13:08:20;;;;;;;23.20;15.03;;;7.90;99.90;;;;;;5086162;27;20299;-55
2023/02/13 13:10:59;;;;;;;20.73;13.70;;;7.90;99.90;;;;;;5081277;27;20217;-56
2023/02/13 13:13:41;;;;;;;23.90;15.03;;;7.80;99.90;;;;;;5082816;28;20233;-55
2023/02/13 13:16:16;;;;;;;25.33;14.83;;;7.80;99.90;;;;;;5082666;28;20555;-50
2023/02/13 13:18:58;;;;;;;20.43;14.23;;;7.70;99.90;;;;;;5087192;28;20222;-56
2023/02/13 13:21:33;;;;;;;21.53;13.63;;;7.80;99.90;;;;;;5102279;28;20195;-56
2023/02/13 13:24:07;;;;;;;25.37;14.47;;;7.80;99.90;;;;;;5088670;27;20268;-51
2023/02/13 13:26:37;;;;;;;22.67;13.90;;;7.80;99.90;;;;;;5091220;27;22363;-52
2023/02/13 13:29:10;;;;;;;24.63;14.53;;;7.70;99.90;;;;;;5082038;28;20198;-49
2023/02/13 13:31:37;;;;;;;24.03;14.70;;;7.80;99.90;;;;;;5089413;28;20664;-54
2023/02/13 13:34:15;;;;;;;20.93;13.27;;;7.80;99.90;;;;;;5094104;28;20280;-48
2023/02/13 13:36:46;;;;;;;20.10;14.10;;;7.70;99.90;;;;;;5085108;28;20202;-56
2023/02/13 13:39:36;;;;;;;22.10;13.10;;;7.70;99.90;;;;;;5084433;27;20201;-55
2023/02/13 13:42:12;;;;;;;23.93;14.27;;;7.60;99.90;;;;;;5078401;27;20198;-49
2023/02/13 13:45:07;;;;;;;22.50;13.63;;;7.60;99.90;;;;;;5084348;28;20197;-54
2023/02/13 13:48:16;;;;;;;22.37;13.03;;;7.60;99.90;;;;;;5097121;28;20334;-49